createdAt,value
2022-10-02T00:00:16.094Z,9.64
2022-10-02T00:01:16.152Z,9.66
2022-10-02T00:02:16.096Z,9.70
2022-10-02T00:03:16.193Z,9.71
2022-10-02T00:04:16.270Z,9.75
2022-10-02T00:05:16.124Z,9.70
2022-10-02T00:06:16.968Z,9.73
2022-10-02T00:07:16.203Z,9.76
2022-10-02T00:08:17.438Z,9.73
2022-10-02T00:09:16.152Z,9.68
2022-10-02T00:10:17.201Z,9.78
2022-10-02T00:11:16.144Z,9.78
2022-10-02T00:12:16.134Z,9.76
2022-10-02T00:13:16.033Z,9.71
2022-10-02T00:14:16.000Z,9.85
2022-10-02T00:15:16.061Z,9.75
2022-10-02T00:16:16.058Z,9.75
2022-10-02T00:17:15.993Z,9.70
2022-10-02T00:18:15.971Z,9.67
2022-10-02T00:19:15.977Z,9.71
2022-10-02T00:20:15.974Z,9.81
2022-10-02T00:21:16.007Z,9.82
2022-10-02T00:22:15.936Z,9.81
2022-10-02T00:23:16.040Z,9.88
2022-10-02T00:24:16.013Z,9.79
2022-10-02T00:25:16.009Z,9.89
2022-10-02T00:26:16.042Z,9.96
2022-10-02T00:27:16.019Z,9.89
2022-10-02T00:28:16.100Z,9.97
2022-10-02T00:29:16.006Z,9.94
2022-10-02T00:30:16.014Z,9.96
2022-10-02T00:31:16.007Z,10.01
2022-10-02T00:32:16.016Z,10.01
2022-10-02T00:33:15.955Z,9.96
2022-10-02T00:34:15.913Z,10.00
2022-10-02T00:35:15.850Z,9.94
2022-10-02T00:36:15.970Z,9.89
2022-10-02T00:37:15.888Z,9.96
2022-10-02T00:38:15.850Z,9.83
2022-10-02T00:39:15.831Z,9.81
2022-10-02T00:40:16.039Z,9.82
2022-10-02T00:41:15.898Z,9.73
2022-10-02T00:42:16.038Z,9.75
2022-10-02T00:43:15.892Z,9.70
2022-10-02T00:44:15.924Z,9.76
2022-10-02T00:45:15.905Z,9.71
2022-10-02T00:46:15.947Z,9.75
2022-10-02T00:47:15.789Z,9.76
2022-10-02T00:48:15.934Z,9.82
2022-10-02T00:49:15.849Z,9.85
2022-10-02T00:50:15.851Z,9.81
2022-10-02T00:51:15.853Z,9.83
2022-10-02T00:52:15.816Z,9.85
2022-10-02T00:53:15.833Z,9.85
2022-10-02T00:54:15.917Z,9.91
2022-10-02T00:55:15.848Z,10.00
2022-10-02T00:56:15.731Z,10.06
2022-10-02T00:57:15.710Z,9.97
2022-10-02T00:58:15.792Z,9.91
2022-10-02T00:59:15.815Z,10.01
2022-10-02T01:00:15.781Z,10.03
2022-10-02T01:01:15.893Z,10.00
2022-10-02T01:02:15.862Z,10.06
2022-10-02T01:03:15.812Z,10.03
2022-10-02T01:04:15.801Z,10.14
2022-10-02T01:05:15.814Z,10.06
2022-10-02T01:06:15.768Z,10.15
2022-10-02T01:07:15.842Z,10.06
2022-10-02T01:08:15.705Z,10.15
2022-10-02T01:09:15.741Z,10.09
2022-10-02T01:10:15.666Z,10.03
2022-10-02T01:11:15.605Z,10.03
2022-10-02T01:12:15.705Z,10.09
2022-10-02T01:13:15.692Z,10.04
2022-10-02T01:14:15.683Z,10.00
2022-10-02T01:15:15.690Z,10.03
2022-10-02T01:16:15.794Z,10.09
2022-10-02T01:17:15.649Z,10.14
2022-10-02T01:18:15.633Z,10.12
2022-10-02T01:19:15.663Z,9.97
2022-10-02T01:20:15.657Z,10.09
2022-10-02T01:21:15.709Z,10.10
2022-10-02T01:22:15.624Z,10.04
2022-10-02T01:23:15.585Z,9.99
2022-10-02T01:24:15.557Z,10.00
2022-10-02T01:25:15.499Z,10.09
2022-10-02T01:26:15.747Z,9.96
2022-10-02T01:27:15.511Z,10.04
2022-10-02T01:28:15.538Z,9.96
2022-10-02T01:29:15.494Z,10.04
2022-10-02T01:30:15.654Z,10.00
2022-10-02T01:31:15.621Z,10.06
2022-10-02T01:32:15.574Z,9.99
2022-10-02T01:33:15.676Z,10.01
2022-10-02T01:34:15.546Z,9.97
2022-10-02T01:35:15.620Z,9.96
2022-10-02T01:36:15.514Z,10.09
2022-10-02T01:37:15.654Z,10.04
2022-10-02T01:38:15.533Z,10.03
2022-10-02T01:39:15.547Z,10.17
2022-10-02T01:40:15.453Z,10.15
2022-10-02T01:41:15.400Z,10.15
2022-10-02T01:42:15.488Z,10.14
2022-10-02T01:43:15.604Z,10.09
2022-10-02T01:44:15.503Z,10.09
2022-10-02T01:45:15.490Z,10.18
2022-10-02T01:46:15.491Z,10.14
2022-10-02T01:47:15.478Z,10.17
2022-10-02T01:48:15.566Z,10.12
2022-10-02T01:49:15.468Z,10.19
2022-10-02T01:50:15.430Z,10.17
2022-10-02T01:51:15.467Z,10.17
2022-10-02T01:52:16.405Z,10.22
2022-10-02T01:53:16.450Z,10.21
2022-10-02T01:54:16.057Z,10.26
2022-10-02T01:55:15.318Z,10.18
2022-10-02T01:56:15.278Z,10.25
2022-10-02T01:57:15.291Z,10.25
2022-10-02T01:58:15.308Z,10.24
2022-10-02T01:59:15.344Z,10.30
2022-10-02T02:00:15.276Z,10.36
2022-10-02T02:01:15.399Z,10.37
2022-10-02T02:02:15.323Z,10.47
2022-10-02T02:03:15.241Z,10.44
2022-10-02T02:04:15.275Z,10.40
2022-10-02T02:05:15.310Z,10.37
2022-10-02T02:06:15.336Z,10.43
2022-10-02T02:07:15.359Z,10.40
2022-10-02T02:08:16.109Z,10.46
2022-10-02T02:09:15.354Z,10.40
2022-10-02T02:10:15.289Z,10.40
2022-10-02T02:11:15.293Z,10.30
2022-10-02T02:12:15.315Z,10.33
2022-10-02T02:13:15.277Z,10.30
2022-10-02T02:14:15.334Z,10.30
2022-10-02T02:15:15.298Z,10.24
2022-10-02T02:16:15.184Z,10.24
2022-10-02T02:17:15.143Z,10.24
2022-10-02T02:18:15.214Z,10.21
2022-10-02T02:19:15.165Z,10.22
2022-10-02T02:20:15.193Z,10.22
2022-10-02T02:21:15.129Z,10.25
2022-10-02T02:22:15.134Z,10.22
2022-10-02T02:23:15.117Z,10.32
2022-10-02T02:24:15.138Z,10.26
2022-10-02T02:25:15.423Z,10.24
2022-10-02T02:26:15.167Z,10.19
2022-10-02T02:27:15.257Z,10.14
2022-10-02T02:28:15.223Z,10.18
2022-10-02T02:29:15.200Z,10.22
2022-10-02T02:30:15.234Z,10.28
2022-10-02T02:31:15.239Z,10.17
2022-10-02T02:32:15.129Z,10.18
2022-10-02T02:33:16.149Z,10.18
2022-10-02T02:34:15.134Z,10.09
2022-10-02T02:35:15.161Z,10.12
2022-10-02T02:36:15.178Z,10.19
2022-10-02T02:37:15.023Z,10.18
2022-10-02T02:38:15.002Z,10.10
2022-10-02T02:39:15.154Z,10.17
2022-10-02T02:40:15.006Z,9.99
2022-10-02T02:41:15.144Z,10.14
2022-10-02T02:42:17.783Z,10.01
2022-10-02T02:43:16.198Z,10.03
2022-10-02T02:44:15.134Z,9.94
2022-10-02T02:45:15.125Z,10.10
2022-10-02T02:46:15.081Z,10.06
2022-10-02T02:47:15.079Z,10.07
2022-10-02T02:48:15.015Z,10.10
2022-10-02T02:49:15.111Z,10.06
2022-10-02T02:50:14.997Z,10.01
2022-10-02T02:51:14.947Z,10.00
2022-10-02T02:52:14.918Z,9.97
2022-10-02T02:53:15.070Z,9.93
2022-10-02T02:54:14.909Z,9.96
2022-10-02T02:55:14.954Z,9.94
2022-10-02T02:56:14.871Z,9.88
2022-10-02T02:57:14.876Z,9.82
2022-10-02T02:58:14.899Z,9.88
2022-10-02T02:59:14.938Z,9.79
2022-10-02T03:00:14.990Z,9.85
2022-10-02T03:01:14.999Z,9.83
2022-10-02T03:02:15.057Z,9.88
2022-10-02T03:03:14.948Z,9.81
2022-10-02T03:04:14.868Z,9.88
2022-10-02T03:05:14.917Z,9.88
2022-10-02T03:06:14.890Z,9.81
2022-10-02T03:07:14.876Z,9.91
2022-10-02T03:08:14.905Z,9.89
2022-10-02T03:09:14.918Z,9.86
2022-10-02T03:10:14.856Z,9.93
2022-10-02T03:11:14.857Z,9.94
2022-10-02T03:12:14.843Z,9.97
2022-10-02T03:13:14.766Z,10.03
2022-10-02T03:14:14.804Z,9.96
2022-10-02T03:15:14.867Z,9.96
2022-10-02T03:16:14.911Z,9.83
2022-10-02T03:17:14.873Z,9.93
2022-10-02T03:18:14.808Z,9.82
2022-10-02T03:19:14.880Z,9.91
2022-10-02T03:20:14.808Z,9.91
2022-10-02T03:21:14.850Z,9.86
2022-10-02T03:22:14.785Z,9.94
2022-10-02T03:23:14.830Z,10.04
2022-10-02T03:24:14.751Z,10.00
2022-10-02T03:25:14.931Z,10.07
2022-10-02T03:26:14.670Z,10.01
2022-10-02T03:27:14.658Z,10.03
2022-10-02T03:28:15.033Z,10.14
2022-10-02T03:29:14.679Z,10.14
2022-10-02T03:30:15.055Z,10.19
2022-10-02T03:31:14.679Z,10.07
2022-10-02T03:32:14.619Z,10.07
2022-10-02T03:33:14.637Z,10.19
2022-10-02T03:34:14.611Z,10.14
2022-10-02T03:35:14.707Z,10.17
2022-10-02T03:36:14.714Z,10.17
2022-10-02T03:37:14.694Z,10.24
2022-10-02T03:38:14.674Z,10.19
2022-10-02T03:39:30.206Z,10.18
2022-10-02T03:40:16.615Z,10.34
2022-10-02T03:41:14.756Z,10.28
2022-10-02T03:42:14.658Z,10.30
2022-10-02T03:43:14.680Z,10.28
2022-10-02T03:44:14.676Z,10.36
2022-10-02T03:45:27.426Z,10.37
2022-10-02T03:46:16.668Z,10.39
2022-10-02T03:47:14.613Z,10.46
2022-10-02T03:48:14.657Z,10.46
2022-10-02T03:49:14.507Z,10.47
2022-10-02T03:50:14.496Z,10.47
2022-10-02T03:51:14.615Z,10.59
2022-10-02T03:52:14.519Z,10.58
2022-10-02T03:53:14.478Z,10.59
2022-10-02T03:54:14.571Z,10.58
2022-10-02T03:55:14.557Z,10.63
2022-10-02T03:56:14.456Z,10.60
2022-10-02T03:57:14.683Z,10.66
2022-10-02T03:58:14.550Z,10.73
2022-10-02T03:59:14.579Z,10.66
2022-10-02T04:00:14.506Z,10.74
2022-10-02T04:01:14.673Z,10.63
2022-10-02T04:02:15.549Z,10.74
2022-10-02T04:03:14.610Z,10.77
2022-10-02T04:04:14.511Z,10.80
2022-10-02T04:05:14.473Z,10.73
2022-10-02T04:06:14.402Z,10.73
2022-10-02T04:07:14.420Z,10.80
2022-10-02T04:08:14.525Z,10.74
2022-10-02T04:09:14.483Z,10.76
2022-10-02T04:10:14.346Z,10.74
2022-10-02T04:11:14.470Z,10.77
2022-10-02T04:12:14.376Z,10.81
2022-10-02T04:13:14.661Z,10.86
2022-10-02T04:14:14.396Z,10.78
2022-10-02T04:15:14.567Z,10.86
2022-10-02T04:16:14.548Z,10.83
2022-10-02T04:17:14.435Z,10.81
2022-10-02T04:18:14.387Z,10.81
2022-10-02T04:19:14.427Z,10.76
2022-10-02T04:20:14.467Z,10.84
2022-10-02T04:21:14.397Z,10.91
2022-10-02T04:22:14.349Z,10.80
2022-10-02T04:23:14.284Z,10.88
2022-10-02T04:24:14.271Z,10.78
2022-10-02T04:25:14.273Z,10.86
2022-10-02T04:26:14.360Z,10.92
2022-10-02T04:27:14.238Z,10.88
2022-10-02T04:28:14.321Z,10.99
2022-10-02T04:29:14.255Z,10.99
2022-10-02T04:30:15.145Z,10.95
2022-10-02T04:31:14.379Z,10.98
2022-10-02T04:32:15.306Z,11.02
2022-10-02T04:33:14.282Z,11.06
2022-10-02T04:34:14.349Z,10.95
2022-10-02T04:35:14.674Z,10.98
2022-10-02T04:36:14.371Z,10.95
2022-10-02T04:37:16.429Z,11.01
2022-10-02T04:38:14.317Z,11.03
2022-10-02T04:39:14.264Z,11.03
2022-10-02T04:40:14.167Z,10.95
2022-10-02T04:41:14.178Z,11.07
2022-10-02T04:42:14.135Z,11.14
2022-10-02T04:43:14.136Z,11.02
2022-10-02T04:44:14.138Z,10.98
2022-10-02T04:45:14.151Z,10.99
2022-10-02T04:46:14.223Z,11.01
2022-10-02T04:47:14.169Z,10.98
2022-10-02T04:48:14.091Z,10.99
2022-10-02T04:49:14.177Z,11.02
2022-10-02T04:50:14.195Z,10.95
2022-10-02T04:51:14.177Z,10.96
2022-10-02T04:52:14.197Z,11.01
2022-10-02T04:53:14.221Z,10.98
2022-10-02T04:54:14.210Z,11.06
2022-10-02T04:55:14.190Z,10.94
2022-10-02T04:56:14.166Z,10.95
2022-10-02T04:57:14.185Z,10.94
2022-10-02T04:58:14.114Z,10.95
2022-10-02T04:59:14.166Z,10.95
2022-10-02T05:00:14.310Z,11.01
2022-10-02T05:01:14.118Z,11.13
2022-10-02T05:02:14.051Z,11.11
2022-10-02T05:03:14.131Z,11.09
2022-10-02T05:04:14.118Z,10.95
2022-10-02T05:05:14.083Z,10.99
2022-10-02T05:06:14.094Z,11.16
2022-10-02T05:07:14.049Z,11.13
2022-10-02T05:08:14.063Z,11.17
2022-10-02T05:09:14.104Z,11.16
2022-10-02T05:10:14.038Z,10.96
2022-10-02T05:11:14.061Z,11.03
2022-10-02T05:12:14.025Z,11.13
2022-10-02T05:13:14.039Z,11.17
2022-10-02T05:14:14.052Z,11.06
2022-10-02T05:15:14.044Z,11.14
2022-10-02T05:16:14.097Z,11.25
2022-10-02T05:17:13.917Z,11.11
2022-10-02T05:18:17.834Z,11.16
2022-10-02T05:19:14.942Z,11.10
2022-10-02T05:20:14.063Z,11.16
2022-10-02T05:21:14.006Z,11.14
2022-10-02T05:22:14.093Z,11.13
2022-10-02T05:23:14.029Z,11.21
2022-10-02T05:24:13.985Z,11.20
2022-10-02T05:25:13.998Z,11.10
2022-10-02T05:26:14.563Z,11.13
2022-10-02T05:27:14.913Z,11.20
2022-10-02T05:28:14.088Z,11.24
2022-10-02T05:29:13.960Z,11.24
2022-10-02T05:30:13.967Z,11.34
2022-10-02T05:31:13.987Z,11.29
2022-10-02T05:32:13.849Z,11.28
2022-10-02T05:33:13.826Z,11.21
2022-10-02T05:34:13.912Z,11.29
2022-10-02T05:35:13.806Z,11.29
2022-10-02T05:36:13.787Z,11.21
2022-10-02T05:37:13.781Z,11.32
2022-10-02T05:38:13.769Z,11.31
2022-10-02T05:39:13.790Z,11.34
2022-10-02T05:40:13.927Z,11.39
2022-10-02T05:41:13.865Z,11.39
2022-10-02T05:42:13.839Z,11.43
2022-10-02T05:43:13.870Z,11.43
2022-10-02T05:44:13.814Z,11.43
2022-10-02T05:45:13.860Z,11.43
2022-10-02T05:46:13.888Z,11.46
2022-10-02T05:47:13.854Z,11.36
2022-10-02T05:48:13.781Z,11.36
2022-10-02T05:49:13.771Z,11.29
2022-10-02T05:50:13.690Z,11.46
2022-10-02T05:51:13.783Z,11.47
2022-10-02T05:52:13.743Z,11.41
2022-10-02T05:53:13.739Z,11.38
2022-10-02T05:54:13.722Z,11.50
2022-10-02T05:55:13.749Z,11.44
2022-10-02T05:56:13.650Z,11.53
2022-10-02T05:57:13.726Z,11.56
2022-10-02T05:58:13.773Z,11.59
2022-10-02T05:59:13.694Z,11.64
2022-10-02T06:00:13.716Z,11.52
2022-10-02T06:01:13.732Z,11.62
2022-10-02T06:02:13.777Z,11.59
2022-10-02T06:03:13.684Z,11.61
2022-10-02T06:04:13.676Z,11.67
2022-10-02T06:05:13.783Z,11.70
2022-10-02T06:06:14.616Z,11.61
2022-10-02T06:07:13.560Z,11.62
2022-10-02T06:08:13.603Z,11.61
2022-10-02T06:09:17.704Z,11.74
2022-10-02T06:10:15.606Z,11.65
2022-10-02T06:11:13.589Z,11.71
2022-10-02T06:12:13.678Z,11.71
2022-10-02T06:13:13.650Z,11.65
2022-10-02T06:14:13.607Z,11.77
2022-10-02T06:15:13.589Z,11.86
2022-10-02T06:16:13.696Z,11.80
2022-10-02T06:17:13.584Z,11.86
2022-10-02T06:18:13.603Z,11.86
2022-10-02T06:19:13.689Z,11.89
2022-10-02T06:20:13.574Z,11.89
2022-10-02T06:21:13.552Z,11.97
2022-10-02T06:22:13.465Z,11.99
2022-10-02T06:23:13.478Z,11.99
2022-10-02T06:24:13.575Z,12.01
2022-10-02T06:25:13.482Z,12.01
2022-10-02T06:26:13.436Z,12.04
2022-10-02T06:27:13.482Z,12.09
2022-10-02T06:28:13.511Z,12.05
2022-10-02T06:29:18.089Z,12.08
2022-10-02T06:30:15.477Z,12.21
2022-10-02T06:31:13.463Z,12.26
2022-10-02T06:32:13.535Z,12.29
2022-10-02T06:33:13.464Z,12.26
2022-10-02T06:34:13.468Z,12.19
2022-10-02T06:35:13.610Z,12.30
2022-10-02T06:36:13.449Z,12.29
2022-10-02T06:37:13.551Z,12.39
2022-10-02T06:38:13.472Z,12.37
2022-10-02T06:39:13.439Z,12.39
2022-10-02T06:40:13.424Z,12.31
2022-10-02T06:41:13.608Z,12.46
2022-10-02T06:42:13.510Z,12.39
2022-10-02T06:43:13.496Z,12.51
2022-10-02T06:44:13.359Z,12.37
2022-10-02T06:45:13.315Z,12.48
2022-10-02T06:46:13.623Z,12.51
2022-10-02T06:47:14.051Z,12.51
2022-10-02T06:48:13.387Z,12.56
2022-10-02T06:49:13.297Z,12.44
2022-10-02T06:50:13.882Z,12.44
2022-10-02T06:51:13.241Z,12.57
2022-10-02T06:52:13.303Z,12.48
2022-10-02T06:53:13.318Z,12.57
2022-10-02T06:54:13.329Z,12.59
2022-10-02T06:55:13.317Z,12.51
2022-10-02T06:56:13.228Z,12.66
2022-10-02T06:57:13.351Z,12.69
2022-10-02T06:58:13.307Z,12.74
2022-10-02T06:59:13.339Z,12.66
2022-10-02T07:00:13.274Z,12.71
2022-10-02T07:01:13.394Z,12.82
2022-10-02T07:02:13.312Z,12.74
2022-10-02T07:03:13.483Z,12.85
2022-10-02T07:04:13.255Z,12.79
2022-10-02T07:05:13.339Z,12.82
2022-10-02T07:06:13.250Z,12.84
2022-10-02T07:07:13.255Z,12.87
2022-10-02T07:08:13.195Z,12.81
2022-10-02T07:09:13.195Z,12.71
2022-10-02T07:10:13.196Z,12.69
2022-10-02T07:11:13.146Z,12.75
2022-10-02T07:12:13.128Z,12.75
2022-10-02T07:13:13.138Z,12.87
2022-10-02T07:14:13.132Z,12.77
2022-10-02T07:15:13.146Z,12.75
2022-10-02T07:16:13.200Z,12.69
2022-10-02T07:17:13.185Z,12.69
2022-10-02T07:18:13.166Z,12.85
2022-10-02T07:19:13.256Z,12.95
2022-10-02T07:20:13.186Z,12.97
2022-10-02T07:21:13.159Z,13.04
2022-10-02T07:22:39.510Z,13.12
2022-10-02T07:23:15.066Z,13.03
2022-10-02T07:24:13.191Z,13.02
2022-10-02T07:25:13.173Z,13.11
2022-10-02T07:26:13.167Z,13.09
2022-10-02T07:27:13.103Z,13.11
2022-10-02T07:28:13.157Z,13.12
2022-10-02T07:29:14.081Z,13.09
2022-10-02T07:30:13.853Z,13.11
2022-10-02T07:31:13.024Z,13.17
2022-10-02T07:32:13.008Z,13.15
2022-10-02T07:33:12.980Z,13.15
2022-10-02T07:34:12.963Z,13.20
2022-10-02T07:35:13.053Z,13.18
2022-10-02T07:36:12.996Z,13.11
2022-10-02T07:37:12.945Z,13.20
2022-10-02T07:38:13.008Z,13.30
2022-10-02T07:39:13.019Z,13.29
2022-10-02T07:40:13.024Z,13.29
2022-10-02T07:41:13.374Z,13.27
2022-10-02T07:42:12.998Z,13.36
2022-10-02T07:43:13.109Z,13.43
2022-10-02T07:44:12.998Z,13.52
2022-10-02T07:45:13.059Z,13.52
2022-10-02T07:46:12.991Z,13.51
2022-10-02T07:47:13.069Z,13.54
2022-10-02T07:48:12.956Z,13.59
2022-10-02T07:49:13.029Z,13.67
2022-10-02T07:50:12.912Z,13.71
2022-10-02T07:51:12.850Z,13.62
2022-10-02T07:52:12.875Z,13.73
2022-10-02T07:53:12.925Z,13.77
2022-10-02T07:54:12.896Z,13.77
2022-10-02T07:55:12.847Z,13.77
2022-10-02T07:56:12.843Z,13.79
2022-10-02T07:57:12.828Z,13.80
2022-10-02T07:58:12.885Z,13.83
2022-10-02T07:59:12.892Z,13.84
2022-10-02T08:00:12.909Z,13.91
2022-10-02T08:01:12.879Z,13.87
2022-10-02T08:02:13.023Z,13.94
2022-10-02T08:03:12.950Z,13.87
2022-10-02T08:04:12.847Z,13.91
2022-10-02T08:05:12.833Z,13.83
2022-10-02T08:06:12.901Z,13.95
2022-10-02T08:07:12.866Z,14.04
2022-10-02T08:08:12.859Z,14.02
2022-10-02T08:09:12.774Z,14.04
2022-10-02T08:10:12.725Z,14.12
2022-10-02T08:11:12.731Z,13.94
2022-10-02T08:12:12.793Z,14.02
2022-10-02T08:13:12.707Z,13.95
2022-10-02T08:14:12.770Z,14.04
2022-10-02T08:15:12.714Z,13.98
2022-10-02T08:16:12.867Z,13.91
2022-10-02T08:17:12.777Z,13.92
2022-10-02T08:18:33.278Z,13.95
2022-10-02T08:19:14.684Z,14.02
2022-10-02T08:20:13.746Z,13.98
2022-10-02T08:21:12.755Z,13.98
2022-10-02T08:22:12.829Z,14.04
2022-10-02T08:23:12.708Z,14.10
2022-10-02T08:24:12.685Z,14.10
2022-10-02T08:25:12.723Z,13.95
2022-10-02T08:26:12.695Z,13.99
2022-10-02T08:27:12.663Z,14.06
2022-10-02T08:28:12.664Z,14.12
2022-10-02T08:29:12.599Z,14.16
2022-10-02T08:30:12.695Z,14.38
2022-10-02T08:31:16.571Z,14.28
2022-10-02T08:32:13.584Z,14.29
2022-10-02T08:33:12.567Z,14.32
2022-10-02T08:34:12.625Z,14.37
2022-10-02T08:35:12.656Z,14.28
2022-10-02T08:36:12.679Z,14.38
2022-10-02T08:37:12.731Z,14.24
2022-10-02T08:38:12.668Z,14.13
2022-10-02T08:39:12.633Z,14.06
2022-10-02T08:40:12.617Z,14.06
2022-10-02T08:41:12.597Z,14.10
2022-10-02T08:42:12.608Z,14.14
2022-10-02T08:43:12.605Z,14.29
2022-10-02T08:44:12.590Z,14.38
2022-10-02T08:45:12.551Z,14.47
2022-10-02T08:46:12.542Z,14.54
2022-10-02T08:47:12.875Z,14.64
2022-10-02T08:48:12.533Z,14.64
2022-10-02T08:49:12.490Z,14.65
2022-10-02T08:50:12.501Z,14.90
2022-10-02T08:51:12.526Z,14.90
2022-10-02T08:52:12.592Z,14.99
2022-10-02T08:53:12.604Z,14.88
2022-10-02T08:54:12.558Z,15.02
2022-10-02T08:55:12.513Z,15.08
2022-10-02T08:56:15.348Z,15.02
2022-10-02T08:57:13.542Z,14.87
2022-10-02T08:58:12.542Z,14.78
2022-10-02T08:59:12.437Z,14.74
2022-10-02T09:00:12.439Z,14.75
2022-10-02T09:01:12.548Z,14.83
2022-10-02T09:02:12.565Z,14.86
2022-10-02T09:03:12.537Z,14.81
2022-10-02T09:04:12.499Z,14.69
2022-10-02T09:05:12.468Z,14.60
2022-10-02T09:06:12.360Z,14.65
2022-10-02T09:07:12.402Z,14.64
2022-10-02T09:08:12.529Z,14.75
2022-10-02T09:09:12.392Z,14.64
2022-10-02T09:10:12.768Z,14.69
2022-10-02T09:11:12.410Z,14.57
2022-10-02T09:12:12.272Z,14.65
2022-10-02T09:13:12.545Z,14.86
2022-10-02T09:14:12.356Z,15.02
2022-10-02T09:15:13.067Z,14.94
2022-10-02T09:16:12.961Z,15.06
2022-10-02T09:17:12.399Z,15.06
2022-10-02T09:18:12.386Z,15.11
2022-10-02T09:19:12.550Z,15.12
2022-10-02T09:20:12.304Z,15.17
2022-10-02T09:21:12.328Z,15.23
2022-10-02T09:22:12.310Z,15.11
2022-10-02T09:23:12.316Z,15.17
2022-10-02T09:24:12.306Z,15.28
2022-10-02T09:25:12.270Z,15.30
2022-10-02T09:26:12.313Z,15.35
2022-10-02T09:27:12.249Z,15.28
2022-10-02T09:28:12.238Z,15.03
2022-10-02T09:29:12.220Z,14.90
2022-10-02T09:30:12.393Z,15.09
2022-10-02T09:31:12.593Z,15.17
2022-10-02T09:32:12.315Z,15.09
2022-10-02T09:33:15.877Z,15.28
2022-10-02T09:34:13.264Z,15.28
2022-10-02T09:35:12.300Z,15.28
2022-10-02T09:36:12.177Z,15.30
2022-10-02T09:37:12.329Z,15.39
2022-10-02T09:38:12.236Z,15.31
2022-10-02T09:39:12.211Z,15.31
2022-10-02T09:40:12.255Z,15.27
2022-10-02T09:41:12.167Z,15.30
2022-10-02T09:42:12.140Z,15.27
2022-10-02T09:43:12.170Z,15.31
2022-10-02T09:44:12.078Z,15.24
2022-10-02T09:45:12.133Z,15.09
2022-10-02T09:46:12.158Z,15.03
2022-10-02T09:47:12.049Z,15.09
2022-10-02T09:48:12.054Z,14.95
2022-10-02T09:49:12.106Z,15.02
2022-10-02T09:50:12.180Z,14.94
2022-10-02T09:51:12.256Z,15.05
2022-10-02T09:52:12.509Z,14.95
2022-10-02T09:53:12.127Z,15.09
2022-10-02T09:54:12.200Z,15.05
2022-10-02T09:55:12.076Z,15.06
2022-10-02T09:56:12.078Z,15.08
2022-10-02T09:57:12.291Z,15.06
2022-10-02T09:58:12.037Z,15.08
2022-10-02T09:59:12.015Z,15.08
2022-10-02T10:00:12.456Z,15.03
2022-10-02T10:01:12.104Z,15.12
2022-10-02T10:02:12.151Z,15.21
2022-10-02T10:03:11.979Z,15.06
2022-10-02T10:04:12.160Z,15.06
2022-10-02T10:05:12.051Z,15.01
2022-10-02T10:06:11.992Z,15.19
2022-10-02T10:07:12.017Z,15.09
2022-10-02T10:08:12.016Z,15.12
2022-10-02T10:09:11.973Z,15.23
2022-10-02T10:10:11.962Z,15.27
2022-10-02T10:11:11.996Z,15.30
2022-10-02T10:12:12.012Z,15.39
2022-10-02T10:13:11.947Z,15.41
2022-10-02T10:14:12.219Z,15.33
2022-10-02T10:15:11.994Z,15.31
2022-10-02T10:16:12.291Z,15.35
2022-10-02T10:17:12.016Z,15.31
2022-10-02T10:18:11.898Z,15.36
2022-10-02T10:19:11.917Z,15.26
2022-10-02T10:20:11.844Z,15.30
2022-10-02T10:21:11.908Z,15.35
2022-10-02T10:22:11.810Z,15.45
2022-10-02T10:23:11.737Z,15.38
2022-10-02T10:24:11.770Z,15.38
2022-10-02T10:25:11.949Z,15.36
2022-10-02T10:26:11.855Z,15.30
2022-10-02T10:27:11.818Z,15.27
2022-10-02T10:28:11.837Z,15.33
2022-10-02T10:29:11.891Z,15.33
2022-10-02T10:30:11.906Z,15.31
2022-10-02T10:31:11.831Z,15.33
2022-10-02T10:32:12.010Z,15.28
2022-10-02T10:33:11.805Z,15.23
2022-10-02T10:34:11.774Z,15.31
2022-10-02T10:35:11.777Z,15.27
2022-10-02T10:36:11.801Z,15.27
2022-10-02T10:37:12.747Z,15.36
2022-10-02T10:38:11.832Z,15.35
2022-10-02T10:39:11.664Z,15.41
2022-10-02T10:40:11.721Z,15.42
2022-10-02T10:41:11.722Z,15.38
2022-10-02T10:42:11.750Z,15.52
2022-10-02T10:43:14.360Z,15.64
2022-10-02T10:44:12.772Z,15.72
2022-10-02T10:45:11.637Z,15.82
2022-10-02T10:46:11.751Z,15.92
2022-10-02T10:47:11.865Z,16.00
2022-10-02T10:48:11.695Z,15.94
2022-10-02T10:49:11.935Z,15.93
2022-10-02T10:50:11.795Z,15.96
2022-10-02T10:51:12.084Z,15.99
2022-10-02T10:52:12.284Z,16.22
2022-10-02T10:53:11.795Z,16.27
2022-10-02T10:54:11.682Z,16.27
2022-10-02T10:55:12.709Z,16.38
2022-10-02T10:56:11.682Z,16.31
2022-10-02T10:57:11.704Z,16.31
2022-10-02T10:58:11.700Z,16.33
2022-10-02T10:59:11.901Z,16.34
2022-10-02T11:00:11.587Z,16.38
2022-10-02T11:01:11.607Z,16.34
2022-10-02T11:02:11.536Z,16.30
2022-10-02T11:03:11.569Z,16.41
2022-10-02T11:04:11.623Z,16.40
2022-10-02T11:05:11.537Z,16.38
2022-10-02T11:06:11.569Z,16.52
2022-10-02T11:07:11.539Z,16.31
2022-10-02T11:08:11.743Z,16.38
2022-10-02T11:09:11.590Z,16.31
2022-10-02T11:10:11.617Z,16.34
2022-10-02T11:11:11.531Z,16.42
2022-10-02T11:12:11.460Z,16.48
2022-10-02T11:13:11.513Z,16.45
2022-10-02T11:14:11.534Z,16.71
2022-10-02T11:15:11.513Z,16.78
2022-10-02T11:16:11.531Z,16.78
2022-10-02T11:17:11.421Z,16.78
2022-10-02T11:18:11.414Z,16.81
2022-10-02T11:19:11.393Z,16.86
2022-10-02T11:20:11.419Z,16.96
2022-10-02T11:21:11.388Z,16.88
2022-10-02T11:22:11.400Z,16.95
2022-10-02T11:23:11.413Z,16.96
2022-10-02T11:24:11.373Z,16.96
2022-10-02T11:25:13.096Z,16.98
2022-10-02T11:26:12.393Z,17.15
2022-10-02T11:27:11.384Z,17.28
2022-10-02T11:28:11.462Z,17.33
2022-10-02T11:29:11.630Z,17.46
2022-10-02T11:30:11.432Z,17.50
2022-10-02T11:31:12.345Z,17.53
2022-10-02T11:32:11.375Z,17.51
2022-10-02T11:33:11.473Z,17.51
2022-10-02T11:34:11.435Z,17.30
2022-10-02T11:35:11.717Z,17.29
2022-10-02T11:36:11.356Z,17.26
2022-10-02T11:37:11.396Z,17.15
2022-10-02T11:38:12.314Z,17.10
2022-10-02T11:39:11.540Z,17.08
2022-10-02T11:40:11.308Z,17.28
2022-10-02T11:41:11.488Z,17.26
2022-10-02T11:42:11.238Z,17.28
2022-10-02T11:43:11.281Z,17.28
2022-10-02T11:44:11.231Z,17.14
2022-10-02T11:45:11.211Z,17.15
2022-10-02T11:46:11.289Z,17.25
2022-10-02T11:47:11.215Z,17.32
2022-10-02T11:48:11.279Z,17.33
2022-10-02T11:49:11.323Z,17.33
2022-10-02T11:50:11.306Z,17.32
2022-10-02T11:51:11.355Z,17.22
2022-10-02T11:52:11.271Z,17.41
2022-10-02T11:53:11.492Z,17.55
2022-10-02T11:54:11.367Z,17.62
2022-10-02T11:55:11.261Z,17.67
2022-10-02T11:56:11.489Z,17.51
2022-10-02T11:57:11.659Z,17.46
2022-10-02T11:58:11.795Z,17.66
2022-10-02T11:59:11.266Z,17.85
2022-10-02T12:00:11.204Z,17.79
2022-10-02T12:01:11.108Z,17.82
2022-10-02T12:02:15.638Z,17.64
2022-10-02T12:03:13.194Z,17.47
2022-10-02T12:04:11.211Z,17.50
2022-10-02T12:05:11.119Z,17.55
2022-10-02T12:06:11.045Z,17.66
2022-10-02T12:07:11.138Z,17.78
2022-10-02T12:08:11.245Z,17.94
2022-10-02T12:09:11.137Z,18.10
2022-10-02T12:10:11.419Z,18.31
2022-10-02T12:11:11.145Z,18.36
2022-10-02T12:12:11.148Z,18.36
2022-10-02T12:13:11.248Z,18.36
2022-10-02T12:14:11.109Z,18.36
2022-10-02T12:15:11.114Z,18.40
2022-10-02T12:16:11.124Z,18.33
2022-10-02T12:17:10.962Z,18.52
2022-10-02T12:18:11.036Z,18.74
2022-10-02T12:19:11.003Z,18.80
2022-10-02T12:20:11.085Z,18.84
2022-10-02T12:21:10.949Z,18.77
2022-10-02T12:22:10.971Z,18.77
2022-10-02T12:23:10.985Z,18.76
2022-10-02T12:24:10.959Z,18.80
2022-10-02T12:25:10.997Z,18.57
2022-10-02T12:26:10.972Z,18.67
2022-10-02T12:27:11.084Z,18.58
2022-10-02T12:28:11.080Z,18.64
2022-10-02T12:29:11.111Z,18.62
2022-10-02T12:30:10.984Z,18.64
2022-10-02T12:31:11.098Z,18.64
2022-10-02T12:32:10.991Z,18.43
2022-10-02T12:33:10.915Z,18.27
2022-10-02T13:49:31.393Z,18.19
2022-10-02T13:50:32.247Z,18.13
2022-10-02T13:51:32.521Z,18.25
2022-10-02T13:52:32.126Z,18.29
2022-10-02T13:53:32.116Z,18.33
2022-10-02T13:54:32.272Z,18.64
2022-10-02T13:55:32.088Z,18.87
2022-10-02T13:56:32.227Z,19.31
2022-10-02T13:57:32.023Z,19.43
2022-10-02T13:58:32.161Z,19.20
2022-10-02T13:59:32.124Z,19.21
2022-10-02T14:00:32.167Z,19.53
2022-10-02T14:01:32.241Z,19.39
2022-10-02T14:02:32.092Z,19.95
2022-10-02T14:03:32.218Z,20.21
2022-10-02T14:04:32.075Z,19.98
2022-10-02T14:05:32.074Z,20.39
2022-10-02T14:06:32.051Z,20.47
2022-10-02T14:07:32.065Z,21.14
2022-10-02T14:08:32.046Z,21.13
2022-10-02T14:09:32.078Z,20.24
2022-10-02T14:10:32.155Z,19.63